Time;durP1;ratioP1;P1;durP2;ratioP2;P2;SDS_P1;SDS_P2;PMS_P1;PMS_P2;Temp;Humidity;BMP_temperature;BMP_pressure;BME280_temperature;BME280_humidity;BME280_pressure;Samples;Min_cycle;Max_cycle;Signal;HPM_P1;HPM_P2
2023/05/02 00:00:45;;;;;;;2.17;1.40;;;16.30;71.40;;;;;;4910159;29;20551;-82
2023/05/02 00:03:15;;;;;;;2.47;1.40;;;16.20;71.60;;;;;;4907982;29;20243;-83
2023/05/02 00:05:46;;;;;;;1.13;1.03;;;16.20;71.50;;;;;;4865995;29;20655;-82
2023/05/02 00:08:15;;;;;;;1.93;0.80;;;16.20;71.50;;;;;;4915884;29;20657;-82
2023/05/02 00:10:43;;;;;;;2.73;1.33;;;16.20;71.20;;;;;;4907310;29;20282;-82
2023/05/02 00:13:13;;;;;;;0.83;0.83;;;16.20;71.20;;;;;;4907274;29;20200;-83
2023/05/02 00:15:41;;;;;;;2.77;1.90;;;16.10;71.30;;;;;;4914439;29;20271;-82
2023/05/02 00:18:10;;;;;;;1.07;0.83;;;16.10;71.30;;;;;;4905959;29;20209;-82
2023/05/02 00:20:40;;;;;;;1.87;1.07;;;16.10;71.30;;;;;;4918426;29;20208;-82
2023/05/02 00:23:11;;;;;;;1.63;1.37;;;16.10;71.10;;;;;;4914122;29;20294;-82
2023/05/02 00:25:45;;;;;;;1.20;1.10;;;16.00;71.80;;;;;;4914143;29;20259;-83
2023/05/02 00:28:15;;;;;;;6.23;2.27;;;16.00;72.00;;;;;;4913564;29;20203;-83
2023/05/02 00:30:48;;;;;;;2.33;1.50;;;15.90;72.50;;;;;;4913417;29;20235;-83
2023/05/02 00:33:16;;;;;;;1.37;1.17;;;15.90;72.20;;;;;;4911804;29;20312;-80
2023/05/02 00:35:45;;;;;;;1.10;1.00;;;15.80;72.30;;;;;;4913430;29;20196;-82
2023/05/02 00:38:13;;;;;;;5.53;1.40;;;15.80;72.30;;;;;;4913653;29;20580;-82
2023/05/02 00:40:46;;;;;;;0.80;0.60;;;15.80;72.00;;;;;;4918576;29;20239;-83
2023/05/02 00:43:16;;;;;;;0.80;0.77;;;15.70;72.50;;;;;;4907816;29;20196;-82
2023/05/02 00:45:46;;;;;;;2.20;1.87;;;15.70;72.50;;;;;;4915658;29;20661;-83
2023/05/02 00:48:16;;;;;;;1.40;1.30;;;15.60;72.80;;;;;;4908782;29;20621;-81
2023/05/02 00:50:45;;;;;;;1.17;1.00;;;15.60;72.60;;;;;;4910191;29;20200;-83
2023/05/02 00:53:13;;;;;;;3.50;1.70;;;15.50;73.00;;;;;;4912125;29;20208;-82
2023/05/02 00:55:42;;;;;;;1.73;1.30;;;15.50;73.30;;;;;;4910219;29;20222;-82
2023/05/02 00:58:14;;;;;;;0.83;0.83;;;15.50;73.20;;;;;;4911326;29;20664;-83
2023/05/02 01:01:09;;;;;;;1.37;0.70;;;15.40;73.30;;;;;;4910235;29;20219;-83
2023/05/02 01:03:46;;;;;;;2.00;1.13;;;15.40;73.20;;;;;;4906693;29;20229;-83
2023/05/02 01:06:31;;;;;;;1.90;0.93;;;15.40;73.20;;;;;;4905666;29;20733;-82
2023/05/02 01:09:10;;;;;;;0.80;0.80;;;15.30;73.20;;;;;;4909904;29;20283;-83
2023/05/02 01:11:47;;;;;;;1.03;0.60;;;15.30;73.30;;;;;;4913033;29;20579;-82
2023/05/02 01:14:17;;;;;;;0.70;0.63;;;15.20;73.30;;;;;;4911793;29;20624;-81
2023/05/02 01:16:48;;;;;;;1.97;1.00;;;15.20;73.10;;;;;;4905605;29;20220;-83
2023/05/02 01:19:25;;;;;;;1.20;1.10;;;15.20;73.20;;;;;;4912989;29;20211;-81
2023/05/02 01:21:56;;;;;;;1.13;1.03;;;15.20;73.10;;;;;;4906850;29;20218;-82
2023/05/02 01:24:28;;;;;;;0.83;0.73;;;15.10;73.30;;;;;;4917113;29;20204;-84
2023/05/02 01:27:13;;;;;;;1.07;0.90;;;15.10;73.30;;;;;;4905378;29;20258;-84
2023/05/02 01:29:44;;;;;;;0.77;0.70;;;15.00;73.40;;;;;;4914619;29;20369;-81
2023/05/02 01:32:15;;;;;;;0.93;0.80;;;15.00;73.80;;;;;;4912299;29;20215;-83
2023/05/02 01:34:47;;;;;;;1.88;1.30;;;15.00;73.60;;;;;;4905611;29;20530;-83
2023/05/02 01:37:18;;;;;;;1.30;0.80;;;14.90;74.20;;;;;;4909435;29;20247;-82
2023/05/02 01:39:48;;;;;;;1.07;0.97;;;14.90;74.00;;;;;;4906426;29;20299;-83
2023/05/02 01:42:18;;;;;;;1.40;0.70;;;14.90;73.70;;;;;;4910913;29;20206;-82
2023/05/02 01:44:49;;;;;;;1.40;1.20;;;14.90;73.60;;;;;;4905986;29;20226;-82
2023/05/02 01:47:19;;;;;;;1.00;0.90;;;14.80;74.20;;;;;;4913430;29;20196;-82
2023/05/02 01:49:48;;;;;;;1.13;0.73;;;14.80;73.80;;;;;;4904367;29;20196;-82
2023/05/02 01:52:21;;;;;;;1.27;1.17;;;14.80;73.70;;;;;;4917339;29;20210;-82
2023/05/02 01:54:52;;;;;;;2.93;1.00;;;14.70;74.00;;;;;;4912045;29;20208;-83
2023/05/02 01:57:20;;;;;;;3.10;1.20;;;14.70;74.20;;;;;;4914105;29;20200;-82
2023/05/02 01:59:51;;;;;;;3.03;1.83;;;14.70;74.20;;;;;;4909547;29;20224;-82
2023/05/02 02:02:21;;;;;;;1.40;1.30;;;14.60;75.00;;;;;;4915196;29;20207;-83
2023/05/02 02:04:50;;;;;;;5.13;1.70;;;14.60;74.40;;;;;;4905849;29;20204;-81
2023/05/02 02:07:19;;;;;;;2.83;2.10;;;14.50;74.30;;;;;;4904452;29;20207;-82
2023/05/02 02:09:47;;;;;;;1.27;0.80;;;14.50;74.40;;;;;;4910392;29;20241;-82
2023/05/02 02:12:23;;;;;;;1.07;0.83;;;14.50;74.40;;;;;;4909559;29;20206;-81
2023/05/02 02:14:59;;;;;;;0.90;0.73;;;14.40;74.40;;;;;;4913580;29;20277;-83
2023/05/02 02:17:39;;;;;;;3.20;1.37;;;14.40;74.20;;;;;;4915539;29;20801;-82
2023/05/02 02:20:11;;;;;;;0.50;0.50;;;14.40;74.10;;;;;;4909878;29;20211;-80
2023/05/02 02:22:41;;;;;;;1.10;1.00;;;14.40;73.80;;;;;;4911705;29;20724;-82
2023/05/02 02:25:12;;;;;;;1.33;1.10;;;14.40;73.70;;;;;;4910764;29;20195;-82
2023/05/02 02:27:41;;;;;;;0.60;0.60;;;14.30;73.60;;;;;;4911390;29;20211;-82
2023/05/02 02:30:15;;;;;;;1.53;0.87;;;14.30;73.50;;;;;;4907011;29;20232;-82
2023/05/02 02:32:43;;;;;;;3.10;2.00;;;14.30;73.20;;;;;;4908715;29;20196;-82
2023/05/02 02:35:12;;;;;;;0.87;0.67;;;14.30;73.10;;;;;;4912563;29;20788;-81
2023/05/02 02:37:46;;;;;;;1.17;0.87;;;14.30;73.00;;;;;;4910624;29;20566;-81
2023/05/02 02:40:23;;;;;;;0.90;0.77;;;14.30;72.80;;;;;;4913157;29;20226;-82
2023/05/02 02:43:00;;;;;;;1.13;0.90;;;14.20;72.50;;;;;;4915092;29;20196;-82
2023/05/02 02:45:37;;;;;;;1.07;0.97;;;14.20;72.40;;;;;;4912809;29;20247;-81
2023/05/02 02:48:19;;;;;;;0.73;0.73;;;14.20;72.00;;;;;;4914149;29;21692;-81
2023/05/02 02:51:00;;;;;;;1.10;0.93;;;14.20;71.90;;;;;;4911852;29;20195;-81
2023/05/02 02:53:34;;;;;;;1.80;0.90;;;14.20;71.40;;;;;;4907077;29;20203;-82
2023/05/02 02:56:06;;;;;;;0.97;0.63;;;14.20;71.30;;;;;;4911245;29;20254;-82
2023/05/02 02:58:43;;;;;;;1.23;0.97;;;14.20;71.10;;;;;;4913112;29;20602;-81
2023/05/02 03:01:18;;;;;;;1.90;0.90;;;14.20;71.90;;;;;;4906654;29;20229;-81
2023/05/02 03:03:48;;;;;;;2.20;1.30;;;14.20;71.00;;;;;;4907667;29;20314;-82
2023/05/02 03:06:18;;;;;;;0.70;0.50;;;14.20;70.90;;;;;;4911118;29;20324;-82
2023/05/02 03:08:47;;;;;;;0.73;0.73;;;14.20;70.80;;;;;;4910425;29;20204;-81
2023/05/02 03:11:15;;;;;;;1.63;0.90;;;14.20;70.40;;;;;;4906426;29;20200;-82
2023/05/02 03:13:44;;;;;;;0.47;0.47;;;14.20;70.10;;;;;;4914156;29;20275;-82
2023/05/02 03:16:32;;;;;;;1.07;0.97;;;14.20;69.80;;;;;;4910312;29;20208;-84
2023/05/02 03:19:01;;;;;;;1.07;0.97;;;14.10;69.50;;;;;;4912515;29;20204;-83
2023/05/02 03:21:30;;;;;;;1.53;1.00;;;14.20;69.50;;;;;;4913909;29;20232;-83
2023/05/02 03:24:01;;;;;;;1.17;0.87;;;14.20;69.50;;;;;;4913867;29;20283;-81
2023/05/02 03:26:29;;;;;;;2.00;1.20;;;14.20;69.30;;;;;;4916850;29;20203;-83
2023/05/02 03:28:59;;;;;;;0.83;0.60;;;14.20;69.10;;;;;;4914318;29;20225;-83
2023/05/02 03:31:29;;;;;;;0.57;0.57;;;14.20;68.90;;;;;;4908321;29;20278;-82
2023/05/02 03:33:59;;;;;;;0.40;0.40;;;14.20;69.00;;;;;;4914535;29;20204;-83
2023/05/02 03:36:27;;;;;;;0.50;0.50;;;14.20;69.10;;;;;;4911999;29;20204;-82
2023/05/02 03:38:56;;;;;;;0.87;0.87;;;14.30;69.20;;;;;;4911860;29;20256;-82
2023/05/02 03:41:24;;;;;;;0.43;0.43;;;14.30;68.90;;;;;;4911092;29;20216;-81
2023/05/02 03:43:53;;;;;;;0.57;0.50;;;14.30;68.90;;;;;;4913214;29;20208;-82
2023/05/02 03:46:22;;;;;;;0.70;0.57;;;14.40;68.80;;;;;;4913372;29;20204;-82
2023/05/02 03:48:52;;;;;;;0.43;0.43;;;14.40;68.40;;;;;;4915132;29;20204;-81
2023/05/02 03:51:20;;;;;;;1.23;0.80;;;14.50;68.40;;;;;;4912680;29;20248;-82
2023/05/02 03:53:49;;;;;;;0.40;0.40;;;14.50;68.30;;;;;;4877502;29;20642;-82
2023/05/02 03:56:19;;;;;;;0.50;0.50;;;14.60;68.20;;;;;;4917141;29;20671;-81
2023/05/02 03:58:49;;;;;;;0.47;0.47;;;14.60;68.00;;;;;;4918079;29;20207;-80
2023/05/02 04:01:17;;;;;;;0.50;0.50;;;14.60;67.70;;;;;;4912131;29;20223;-83
2023/05/02 04:03:46;;;;;;;1.17;0.97;;;14.70;67.10;;;;;;4917529;29;20204;-82
2023/05/02 04:06:16;;;;;;;0.40;0.40;;;14.70;67.20;;;;;;4913806;29;20203;-84
2023/05/02 04:08:44;;;;;;;1.70;1.30;;;14.80;67.00;;;;;;4915815;29;20292;-81
2023/05/02 04:11:13;;;;;;;2.47;0.50;;;14.80;66.60;;;;;;4902842;29;20208;-82
2023/05/02 04:13:41;;;;;;;1.53;0.80;;;14.80;66.50;;;;;;4902918;29;20204;-82
2023/05/02 04:16:10;;;;;;;1.40;0.67;;;14.80;66.10;;;;;;4914313;29;20207;-82
2023/05/02 04:18:38;;;;;;;2.40;0.80;;;14.90;66.50;;;;;;4911393;29;20622;-84
2023/05/02 04:21:09;;;;;;;1.03;0.70;;;15.00;66.60;;;;;;4911531;29;20219;-80
2023/05/02 04:23:39;;;;;;;0.67;0.60;;;15.00;66.60;;;;;;4906662;29;20201;-80
2023/05/02 04:26:07;;;;;;;3.10;1.50;;;15.00;66.20;;;;;;4915915;29;20618;-82
2023/05/02 04:28:36;;;;;;;4.33;0.80;;;15.00;66.00;;;;;;4913133;29;20721;-82
2023/05/02 04:31:04;;;;;;;1.83;0.97;;;15.10;66.30;;;;;;4914047;29;20231;-82
2023/05/02 04:33:33;;;;;;;6.83;1.20;;;15.20;66.30;;;;;;4921710;29;20240;-80
2023/05/02 04:36:01;;;;;;;1.50;1.00;;;15.20;65.60;;;;;;4907265;29;20332;-81
2023/05/02 04:38:34;;;;;;;2.10;1.17;;;15.30;65.70;;;;;;4906467;29;20614;-83
2023/05/02 04:41:05;;;;;;;1.23;0.90;;;15.30;64.70;;;;;;4902173;29;20204;-83
2023/05/02 04:43:37;;;;;;;5.00;1.13;;;15.30;64.70;;;;;;4914252;29;20682;-80
2023/05/02 04:46:05;;;;;;;3.07;2.00;;;15.40;64.70;;;;;;4911760;29;20653;-81
2023/05/02 04:48:34;;;;;;;3.13;0.93;;;15.40;64.70;;;;;;4910582;29;20259;-80
2023/05/02 04:51:02;;;;;;;2.80;1.08;;;15.50;64.60;;;;;;4909796;29;20815;-82
2023/05/02 04:53:30;;;;;;;1.90;1.00;;;15.60;65.00;;;;;;4917959;29;20203;-81
2023/05/02 04:55:59;;;;;;;9.50;1.27;;;15.60;65.10;;;;;;4915264;29;20604;-82
2023/05/02 04:58:29;;;;;;;1.60;1.00;;;15.60;64.50;;;;;;4914576;29;20263;-81
2023/05/02 05:00:57;;;;;;;1.90;0.70;;;15.70;64.80;;;;;;4909722;29;20227;-82
2023/05/02 05:03:28;;;;;;;2.17;1.17;;;15.80;64.80;;;;;;4907270;29;20277;-84
2023/05/02 05:05:57;;;;;;;1.97;1.20;;;15.80;63.90;;;;;;4913028;29;20296;-82
2023/05/02 05:08:26;;;;;;;4.30;1.00;;;15.90;64.10;;;;;;4907727;29;20207;-80
2023/05/02 05:10:54;;;;;;;1.53;1.10;;;16.00;64.00;;;;;;4916439;29;21123;-81
2023/05/02 05:13:22;;;;;;;1.10;0.97;;;16.00;63.60;;;;;;4912288;29;20211;-81
2023/05/02 05:15:52;;;;;;;1.43;1.20;;;16.10;63.70;;;;;;4915420;29;20200;-82
2023/05/02 05:18:21;;;;;;;1.67;1.07;;;16.20;63.70;;;;;;4912539;29;20200;-81
2023/05/02 05:20:49;;;;;;;5.37;2.57;;;16.20;62.60;;;;;;4911586;29;20200;-80
2023/05/02 05:23:17;;;;;;;5.90;1.10;;;16.20;62.30;;;;;;4912786;29;20212;-81
2023/05/02 05:25:46;;;;;;;1.97;1.33;;;16.30;62.40;;;;;;4911898;29;20255;-80
2023/05/02 05:28:14;;;;;;;2.07;1.20;;;16.30;62.70;;;;;;4912556;29;20669;-81
2023/05/02 05:30:43;;;;;;;4.33;1.90;;;16.40;62.00;;;;;;4909419;29;20223;-80
2023/05/02 05:33:13;;;;;;;2.03;1.23;;;16.40;62.60;;;;;;4913375;29;20244;-79
2023/05/02 05:35:42;;;;;;;1.50;0.97;;;16.50;62.90;;;;;;4903021;29;20208;-79
2023/05/02 05:38:10;;;;;;;1.43;0.70;;;16.60;62.60;;;;;;4904382;29;20618;-80
2023/05/02 05:40:38;;;;;;;1.70;1.37;;;16.60;62.10;;;;;;4909541;29;20266;-81
2023/05/02 05:43:07;;;;;;;1.30;0.87;;;16.70;61.70;;;;;;4905915;29;20224;-80
2023/05/02 05:45:35;;;;;;;1.47;1.00;;;16.70;61.30;;;;;;4904964;29;20259;-80
2023/05/02 05:48:07;;;;;;;1.10;0.80;;;16.80;61.90;;;;;;4909277;29;20210;-80
2023/05/02 05:50:37;;;;;;;0.80;0.70;;;16.90;61.90;;;;;;4910894;29;20254;-81
2023/05/02 05:53:05;;;;;;;2.27;0.93;;;17.00;62.20;;;;;;4903129;29;20223;-80
2023/05/02 05:55:33;;;;;;;1.77;1.30;;;17.00;61.90;;;;;;4908215;29;20204;-82
2023/05/02 05:58:05;;;;;;;3.10;1.10;;;17.10;61.60;;;;;;4909746;29;20201;-81
2023/05/02 06:00:35;;;;;;;1.90;0.83;;;17.20;61.50;;;;;;4909526;29;20207;-79
2023/05/02 06:03:04;;;;;;;2.13;0.90;;;17.20;61.70;;;;;;4907929;29;20216;-79
2023/05/02 06:05:37;;;;;;;1.17;0.93;;;17.30;61.40;;;;;;4903701;29;20200;-79
2023/05/02 06:08:06;;;;;;;9.20;1.27;;;17.30;61.10;;;;;;4908560;29;20251;-80
2023/05/02 06:10:34;;;;;;;3.70;1.60;;;17.40;61.30;;;;;;4904800;29;20199;-79
2023/05/02 06:13:03;;;;;;;1.13;0.67;;;17.50;61.40;;;;;;4901149;29;20192;-80
2023/05/02 06:15:34;;;;;;;3.17;1.00;;;17.60;61.40;;;;;;4906755;29;20730;-80
2023/05/02 06:18:02;;;;;;;1.73;1.00;;;17.70;61.60;;;;;;4909835;29;20195;-80
2023/05/02 06:20:31;;;;;;;1.73;1.33;;;17.70;61.30;;;;;;4906904;29;20211;-78
2023/05/02 06:23:01;;;;;;;3.53;1.87;;;17.80;60.80;;;;;;4916298;29;20224;-78
2023/05/02 06:25:29;;;;;;;9.67;1.43;;;17.80;60.70;;;;;;4914172;29;20212;-79
2023/05/02 06:27:57;;;;;;;2.47;1.30;;;17.90;61.00;;;;;;4909491;29;20206;-79
2023/05/02 06:30:25;;;;;;;1.87;0.93;;;18.00;61.20;;;;;;4905146;29;20236;-80
2023/05/02 06:32:54;;;;;;;2.17;1.40;;;18.10;61.20;;;;;;4913462;29;20200;-82
2023/05/02 06:35:22;;;;;;;4.37;1.43;;;18.20;61.00;;;;;;4909198;29;20232;-80
2023/05/02 06:37:50;;;;;;;2.83;1.20;;;18.30;61.10;;;;;;4903224;29;20278;-81
2023/05/02 06:40:20;;;;;;;1.97;1.20;;;18.30;60.90;;;;;;4911579;29;20259;-78
2023/05/02 06:42:49;;;;;;;2.23;0.97;;;18.40;60.90;;;;;;4900632;29;20300;-79
2023/05/02 06:45:17;;;;;;;6.30;1.27;;;18.40;60.80;;;;;;4913567;29;20720;-81
2023/05/02 06:47:45;;;;;;;2.17;1.00;;;18.50;60.50;;;;;;4904403;29;20215;-79
2023/05/02 06:50:14;;;;;;;0.60;0.60;;;18.60;60.90;;;;;;4906428;29;20211;-79
2023/05/02 06:52:42;;;;;;;2.10;1.17;;;18.70;60.70;;;;;;4913676;29;20251;-79
2023/05/02 06:56:07;;;;;;;1.07;0.80;;;18.80;60.70;;;;;;4913366;29;20287;-80
2023/05/02 06:58:52;;;;;;;1.83;1.03;;;18.90;60.80;;;;;;4898397;29;20199;-80
2023/05/02 07:01:21;;;;;;;1.93;1.17;;;18.90;60.50;;;;;;4894353;29;20227;-80
2023/05/02 07:03:50;;;;;;;2.37;1.03;;;19.00;60.50;;;;;;4904078;29;20310;-79
2023/05/02 07:06:18;;;;;;;3.30;1.30;;;19.10;60.60;;;;;;4912492;29;20597;-78
2023/05/02 07:08:46;;;;;;;2.83;1.33;;;19.20;60.50;;;;;;4910127;29;20204;-81
2023/05/02 07:11:15;;;;;;;1.90;0.97;;;19.30;60.50;;;;;;4910684;29;20200;-80
2023/05/02 07:13:45;;;;;;;4.07;0.90;;;19.30;60.20;;;;;;4913690;29;20646;-83
2023/05/02 07:16:13;;;;;;;1.67;0.90;;;19.40;60.00;;;;;;4913356;29;20219;-79
2023/05/02 07:18:44;;;;;;;2.27;1.10;;;19.50;60.10;;;;;;4911664;29;20204;-79
2023/05/02 07:21:13;;;;;;;1.43;0.77;;;19.50;59.70;;;;;;4904484;29;20200;-80
2023/05/02 07:23:41;;;;;;;2.50;0.90;;;19.60;59.60;;;;;;4907447;29;20610;-78
2023/05/02 07:26:10;;;;;;;4.70;1.17;;;19.70;60.00;;;;;;4910947;29;20223;-78
2023/05/02 07:28:38;;;;;;;2.60;1.33;;;19.70;59.90;;;;;;4910138;29;20265;-80
2023/05/02 07:31:08;;;;;;;3.33;1.10;;;19.80;59.70;;;;;;4902402;29;20244;-79
2023/05/02 07:33:36;;;;;;;1.87;1.00;;;19.90;59.90;;;;;;4907073;29;20811;-80
2023/05/02 07:36:05;;;;;;;2.60;1.13;;;19.90;59.70;;;;;;4912969;29;20215;-80
2023/05/02 07:38:33;;;;;;;2.40;0.97;;;20.00;59.50;;;;;;4909348;29;20208;-80
2023/05/02 07:41:02;;;;;;;1.70;1.20;;;20.00;58.60;;;;;;4913130;29;20653;-81
2023/05/02 07:43:31;;;;;;;2.60;1.57;;;20.20;59.20;;;;;;4908612;29;20772;-81
2023/05/02 07:46:03;;;;;;;3.53;1.00;;;20.20;59.30;;;;;;4907461;29;20208;-79
2023/05/02 07:48:33;;;;;;;3.10;1.00;;;20.30;58.90;;;;;;4908839;29;20235;-79
2023/05/02 07:51:08;;;;;;;3.95;1.38;;;20.40;58.90;;;;;;4909780;29;20286;-79
2023/05/02 07:53:37;;;;;;;2.00;1.00;;;20.40;58.10;;;;;;4913894;29;20255;-79
2023/05/02 07:56:18;;;;;;;3.63;1.00;;;20.50;57.30;;;;;;4910474;29;20215;-83
2023/05/02 07:58:47;;;;;;;0.70;0.70;;;20.60;57.20;;;;;;4908480;29;20226;-79
2023/05/02 08:01:16;;;;;;;3.38;0.93;;;20.60;57.30;;;;;;4909856;29;20597;-81
2023/05/02 08:03:46;;;;;;;1.60;1.00;;;20.60;56.70;;;;;;4908016;29;20704;-80
2023/05/02 08:06:15;;;;;;;1.52;0.85;;;20.80;57.20;;;;;;4905015;29;20662;-80
2023/05/02 08:08:43;;;;;;;2.05;0.73;;;20.80;56.90;;;;;;4912904;29;20267;-80
2023/05/02 08:11:12;;;;;;;1.75;1.23;;;20.90;57.10;;;;;;4904888;29;20204;-79
2023/05/02 08:13:40;;;;;;;1.92;1.10;;;21.00;57.30;;;;;;4909562;29;20223;-82
2023/05/02 08:16:08;;;;;;;1.58;0.70;;;21.00;56.40;;;;;;4900526;29;20199;-80
2023/05/02 08:18:37;;;;;;;1.30;0.68;;;21.10;56.50;;;;;;4909073;29;20231;-78
2023/05/02 08:21:07;;;;;;;1.83;1.13;;;21.20;56.70;;;;;;4915148;29;20657;-79
2023/05/02 08:23:36;;;;;;;0.98;0.73;;;21.30;56.80;;;;;;4910167;29;20645;-79
2023/05/02 08:26:05;;;;;;;2.42;0.85;;;21.30;56.50;;;;;;4915160;29;20207;-80
2023/05/02 08:28:33;;;;;;;2.33;1.13;;;21.40;56.70;;;;;;4907442;29;20204;-81
2023/05/02 08:31:02;;;;;;;1.40;0.90;;;21.50;56.40;;;;;;4912453;29;20323;-79
2023/05/02 08:33:30;;;;;;;0.90;0.70;;;21.60;56.10;;;;;;4912989;29;20215;-80
2023/05/02 08:36:10;;;;;;;1.80;1.00;;;21.60;54.80;;;;;;4914866;29;20208;-81
2023/05/02 08:38:39;;;;;;;1.38;0.75;;;21.70;54.90;;;;;;4907873;29;20564;-79
2023/05/02 08:41:11;;;;;;;1.25;0.82;;;21.70;54.60;;;;;;4912279;29;20196;-82
2023/05/02 08:43:40;;;;;;;1.67;0.80;;;21.80;54.40;;;;;;4909252;29;20216;-80
2023/05/02 08:46:11;;;;;;;2.75;1.42;;;21.80;52.80;;;;;;4908919;29;20253;-80
2023/05/02 08:48:41;;;;;;;0.98;0.65;;;21.80;52.20;;;;;;4904256;29;20574;-79
2023/05/02 08:51:11;;;;;;;0.95;0.88;;;21.80;53.00;;;;;;4904507;29;20550;-78
2023/05/02 08:53:41;;;;;;;0.82;0.65;;;21.90;52.40;;;;;;4912405;29;20192;-78
2023/05/02 08:56:12;;;;;;;3.78;0.70;;;21.90;52.00;;;;;;4911619;29;20627;-79
2023/05/02 08:58:41;;;;;;;0.68;0.68;;;21.90;52.00;;;;;;4918655;29;20214;-78
2023/05/02 09:01:13;;;;;;;1.70;1.10;;;21.90;51.90;;;;;;4905296;29;20212;-77
2023/05/02 09:03:44;;;;;;;1.10;1.00;;;22.00;52.10;;;;;;4905854;29;20234;-78
2023/05/02 09:06:13;;;;;;;1.63;0.60;;;22.10;52.10;;;;;;4908716;29;20228;-78
2023/05/02 09:08:45;;;;;;;1.42;0.90;;;22.10;52.00;;;;;;4910701;29;20204;-77
2023/05/02 09:11:15;;;;;;;2.47;0.90;;;22.10;52.00;;;;;;4913551;29;20200;-78
2023/05/02 09:13:44;;;;;;;1.08;0.70;;;22.20;52.30;;;;;;4909649;29;20225;-78
2023/05/02 09:16:15;;;;;;;1.33;0.60;;;22.30;52.40;;;;;;4914313;29;20207;-79
2023/05/02 09:18:45;;;;;;;0.80;0.60;;;22.30;52.10;;;;;;4914459;29;20318;-78
2023/05/02 09:21:15;;;;;;;1.63;1.08;;;22.40;52.60;;;;;;4904897;29;20202;-78
2023/05/02 09:23:50;;;;;;;1.33;0.90;;;22.40;52.60;;;;;;4906407;29;20641;-78
2023/05/02 09:26:20;;;;;;;0.90;0.68;;;22.40;51.90;;;;;;4912255;29;20200;-78
2023/05/02 09:28:50;;;;;;;1.17;0.85;;;22.50;52.00;;;;;;4909251;29;20204;-78
2023/05/02 09:31:20;;;;;;;0.95;0.65;;;22.50;52.20;;;;;;4908955;29;20263;-78
2023/05/02 09:34:10;;;;;;;0.52;0.47;;;22.60;52.50;;;;;;4913495;29;20282;-78
2023/05/02 09:36:42;;;;;;;1.75;0.63;;;22.70;52.00;;;;;;4905725;29;20260;-78
2023/05/02 09:39:15;;;;;;;1.30;0.88;;;22.70;51.80;;;;;;4905506;29;20235;-78
2023/05/02 09:41:45;;;;;;;2.30;0.70;;;22.80;51.80;;;;;;4910168;29;20681;-79
2023/05/02 09:44:14;;;;;;;1.10;0.75;;;22.80;51.60;;;;;;4907319;29;20680;-77
2023/05/02 09:46:45;;;;;;;0.73;0.70;;;22.90;51.60;;;;;;4910530;29;20212;-78
2023/05/02 09:49:17;;;;;;;1.95;0.93;;;22.90;51.80;;;;;;4908723;29;20195;-79
2023/05/02 09:51:47;;;;;;;1.58;1.00;;;23.00;51.60;;;;;;4912936;29;20199;-78
2023/05/02 09:54:36;;;;;;;2.22;0.85;;;23.00;51.80;;;;;;4910567;29;20642;-79
2023/05/02 09:57:05;;;;;;;1.60;0.70;;;23.00;51.00;;;;;;4911167;29;20203;-78
2023/05/02 09:59:34;;;;;;;0.98;0.57;;;23.10;51.00;;;;;;4915655;29;20617;-78
2023/05/02 10:02:05;;;;;;;2.78;1.13;;;23.10;51.70;;;;;;4909477;29;20263;-78
2023/05/02 10:04:34;;;;;;;2.35;1.40;;;23.20;51.40;;;;;;4913889;29;20212;-80
2023/05/02 10:07:05;;;;;;;1.38;0.80;;;23.30;51.60;;;;;;4915856;29;20558;-80
2023/05/02 10:09:36;;;;;;;1.40;0.80;;;23.30;51.40;;;;;;4904463;29;20200;-80
2023/05/02 10:12:07;;;;;;;4.47;0.93;;;23.30;51.00;;;;;;4913083;29;20200;-81
2023/05/02 10:14:41;;;;;;;1.35;0.90;;;23.40;50.60;;;;;;4906828;29;20223;-76
2023/05/02 10:17:14;;;;;;;1.25;0.82;;;23.40;51.10;;;;;;4908036;29;20196;-78
2023/05/02 10:19:52;;;;;;;1.05;0.75;;;23.40;50.60;;;;;;4909417;29;20200;-78
2023/05/02 10:22:22;;;;;;;1.20;0.80;;;23.50;49.90;;;;;;4915020;29;20250;-78
2023/05/02 10:24:53;;;;;;;1.38;0.60;;;23.60;50.40;;;;;;4903338;29;20256;-78
2023/05/02 10:27:22;;;;;;;1.17;0.77;;;23.60;50.80;;;;;;4910445;29;20456;-78
2023/05/02 10:29:52;;;;;;;2.78;1.10;;;23.70;50.90;;;;;;4906877;29;20235;-77
2023/05/02 10:32:22;;;;;;;1.83;0.93;;;23.70;50.80;;;;;;4901865;29;20211;-78
2023/05/02 10:34:52;;;;;;;3.17;1.08;;;23.70;50.60;;;;;;4904566;29;20263;-78
2023/05/02 10:37:47;;;;;;;1.58;1.02;;;23.80;50.80;;;;;;4901624;29;20608;-81
2023/05/02 10:44:15;;;;;;;1.42;0.90;;;23.90;49.90;;;;;;4886862;29;20705;-80
2023/05/02 10:47:21;;;;;;;1.55;0.95;;;23.90;49.50;;;;;;4903002;29;20211;-81
2023/05/02 10:49:51;;;;;;;3.25;0.73;;;24.00;49.00;;;;;;4910458;29;20200;-78
2023/05/02 10:52:26;;;;;;;1.30;0.90;;;24.10;49.50;;;;;;4915144;29;20204;-80
2023/05/02 10:55:16;;;;;;;0.60;0.60;;;24.10;49.50;;;;;;4906518;29;20211;-78
2023/05/02 10:58:22;;;;;;;1.88;0.98;;;24.10;49.20;;;;;;4907846;29;20208;-78
2023/05/02 11:00:52;;;;;;;0.90;0.70;;;24.20;49.00;;;;;;4910827;29;20560;-78
2023/05/02 11:03:56;;;;;;;0.80;0.70;;;24.30;49.60;;;;;;4910799;29;20278;-79
2023/05/02 11:06:25;;;;;;;2.65;0.90;;;24.30;49.10;;;;;;4911301;29;20256;-81
2023/05/02 11:08:53;;;;;;;1.50;0.77;;;24.40;49.20;;;;;;4914622;29;20566;-81
2023/05/02 11:11:41;;;;;;;6.07;0.75;;;24.40;49.30;;;;;;4909054;29;20261;-79
2023/05/02 11:14:11;;;;;;;0.88;0.60;;;24.50;49.30;;;;;;4910664;29;20192;-80
2023/05/02 11:17:08;;;;;;;3.95;0.63;;;24.50;48.50;;;;;;4913307;29;20200;-81
2023/05/02 11:20:25;;;;;;;1.55;0.82;;;24.50;47.50;;;;;;4910811;29;20235;-77
2023/05/02 11:22:56;;;;;;;2.85;0.60;;;24.50;48.00;;;;;;4915164;29;20259;-78
2023/05/02 11:25:36;;;;;;;1.13;0.73;;;24.50;48.10;;;;;;4909994;29;20211;-81
2023/05/02 11:28:07;;;;;;;1.15;0.75;;;24.60;48.40;;;;;;4907610;29;20204;-77
2023/05/02 11:30:42;;;;;;;1.05;0.80;;;24.60;48.20;;;;;;4907905;29;20243;-79
2023/05/02 11:33:21;;;;;;;1.73;0.70;;;24.70;48.10;;;;;;4909630;29;20332;-78
2023/05/02 11:35:49;;;;;;;0.82;0.68;;;24.70;48.40;;;;;;4915639;29;20196;-81
2023/05/02 11:38:21;;;;;;;1.13;0.73;;;24.70;48.10;;;;;;4911251;29;20204;-81
2023/05/02 11:40:55;;;;;;;1.80;0.80;;;24.80;48.00;;;;;;4910227;29;20203;-80
2023/05/02 11:43:25;;;;;;;1.35;0.50;;;24.80;48.10;;;;;;4916250;29;20204;-79
2023/05/02 11:45:55;;;;;;;1.38;0.95;;;24.90;48.40;;;;;;4918265;29;20586;-80
2023/05/02 11:48:26;;;;;;;1.85;0.93;;;24.90;48.70;;;;;;4913548;29;20222;-78
2023/05/02 11:50:56;;;;;;;1.58;1.05;;;25.00;48.10;;;;;;4910499;29;20232;-78
2023/05/02 11:53:28;;;;;;;1.75;0.70;;;25.00;47.80;;;;;;4912223;29;20207;-79
2023/05/02 11:55:58;;;;;;;1.52;0.70;;;25.00;47.70;;;;;;4913853;29;20215;-78
2023/05/02 11:58:28;;;;;;;6.15;2.70;;;25.00;47.60;;;;;;4909414;29;20241;-78
2023/05/02 12:00:57;;;;;;;4.35;1.88;;;25.10;47.80;;;;;;4907964;29;20302;-81
2023/05/02 12:03:29;;;;;;;1.20;0.80;;;25.10;47.70;;;;;;4917500;29;20636;-80
2023/05/02 12:06:08;;;;;;;2.20;0.88;;;25.00;46.80;;;;;;4902979;29;20779;-76
2023/05/02 12:08:38;;;;;;;1.13;0.70;;;25.00;47.10;;;;;;4908334;29;20195;-77
2023/05/02 12:11:06;;;;;;;0.85;0.50;;;25.10;47.40;;;;;;4911143;29;20621;-78
2023/05/02 12:13:35;;;;;;;5.03;0.80;;;25.10;47.70;;;;;;4910502;29;20731;-77
2023/05/02 12:16:03;;;;;;;0.70;0.63;;;25.10;47.30;;;;;;4913969;29;20260;-76
2023/05/02 12:18:33;;;;;;;2.88;1.35;;;25.10;47.00;;;;;;4914373;29;20235;-80
2023/05/02 12:21:02;;;;;;;1.33;0.63;;;25.10;47.30;;;;;;4914491;29;20208;-78
2023/05/02 12:23:31;;;;;;;5.90;1.35;;;25.20;46.70;;;;;;4906877;29;20216;-79
2023/05/02 12:26:00;;;;;;;1.55;1.10;;;25.20;47.10;;;;;;4916149;29;20763;-78
2023/05/02 12:28:29;;;;;;;1.15;0.65;;;25.20;47.20;;;;;;4916306;29;20230;-79
2023/05/02 12:30:57;;;;;;;1.08;0.88;;;25.20;47.10;;;;;;4909530;29;20239;-78
2023/05/02 12:33:26;;;;;;;1.00;0.68;;;25.20;46.60;;;;;;4910259;29;20231;-79
2023/05/02 12:36:06;;;;;;;1.05;0.55;;;25.20;46.00;;;;;;4902957;29;20650;-80
2023/05/02 12:38:35;;;;;;;0.70;0.55;;;25.30;47.10;;;;;;4909417;29;20633;-81
2023/05/02 12:41:04;;;;;;;1.08;0.70;;;25.30;46.50;;;;;;4907301;29;20208;-82
2023/05/02 12:43:46;;;;;;;1.65;0.70;;;25.30;46.80;;;;;;4913800;29;20206;-79
2023/05/02 12:46:14;;;;;;;1.10;0.57;;;25.30;46.40;;;;;;4908838;29;20207;-77
2023/05/02 12:48:43;;;;;;;1.30;0.75;;;25.30;46.90;;;;;;4910274;29;20208;-77
2023/05/02 12:51:24;;;;;;;1.00;0.85;;;25.40;46.50;;;;;;4915122;29;20274;-78
2023/05/02 12:54:20;;;;;;;1.33;0.60;;;25.40;46.40;;;;;;4905722;29;20783;-78
2023/05/02 12:56:50;;;;;;;10.40;1.08;;;25.50;46.50;;;;;;4912427;29;20296;-80
2023/05/02 12:59:29;;;;;;;4.90;1.08;;;25.40;46.30;;;;;;4911038;29;20200;-81
2023/05/02 13:01:58;;;;;;;1.05;0.77;;;25.40;46.70;;;;;;4908337;29;20209;-81
2023/05/02 13:04:42;;;;;;;2.50;1.33;;;25.50;47.20;;;;;;4908828;29;20207;-81
2023/05/02 13:07:17;;;;;;;2.35;1.17;;;25.60;47.40;;;;;;4902490;29;20236;-78
2023/05/02 13:10:01;;;;;;;1.38;0.80;;;25.60;47.40;;;;;;4906517;29;20211;-80
2023/05/02 13:12:58;;;;;;;2.05;0.70;;;25.60;46.60;;;;;;4905701;29;20196;-80
2023/05/02 13:15:34;;;;;;;1.10;0.77;;;25.60;46.60;;;;;;4906862;29;20200;-80